Cairo, Egypt

8:30 PM EET on July 27, 2016 (GMT +0200)
Cairo International | | Change Station

Elev 243 ft 30.11 °N, 31.41 °E | Updated 49 seconds ago

Clear
Clear
86 °F
Feels Like 89 °F
N
13
Wind Variable Wind from North

Today
High -- | Low -- °F
--% Chance of Precip.
Yesterday
High -- | Low -- °F
Precip. -- in
Pressure 29.77 in
Visibility -9999.0 miles
Clouds
Heat Index 89 °F
Dew Point 68 °F
Humidity 55%
Rainfall 0.00 in
Snow Depth Not available.
5:10 AM 6:51 PM
Last Quarter, 41% visible
METAR HECA 271830Z 35011KT CAVOK 30/20 Q1008 NOSIG
Pressure 29.77 in
Visibility -9999.0 miles
Clouds
Heat Index 89 °F
Dew Point 68 °F
Humidity 55%
Rainfall 0.00 in
Snow Depth Not available.
5:10 AM 6:51 PM
Last Quarter, 41% visible
METAR HECA 271830Z 35011KT CAVOK 30/20 Q1008 NOSIG

10-Day Weather Forecast

No radar image for this location.
×

Almanac

Astronomy

Jul. 27, 2016 Rise Set
Actual Time
Civil Twilight
Nautical Twilight
Astronomical Twilight
Moon
Length of Visible Light
Length of Day
Tomorrow will be .
, % of the Moon is Illuminated

Today's Extremes

Country Highs Country Lows

Community

WunderPhotos

Upload Photos

1,927,894 photos uploaded!

WunderBlog® & News

Nearby

Air Quality

  Air Quality AQ Index Pollutant
Not available.

Snow Depth

Station Depth Elevation

Earthquake Activity

City Distance Mag. Time & Date
Minimum magnitude displayed is 2.5.

Coastal Water Temperatures

Place Temperature

Stations

Nearby Weather Stations

Station Location Temp. Windchill Dew Point Humidity Wind Precip. Elev Updated Type